KENL/ENL METAR and TAF weather

Enter ICAO airport designator
Station Type Date Time Source
KENL METAR 2019/04/24 16:35 UTC NOAA

KENL 241635Z AUTO 09004KT 7SM SCT013 18/15 A2992 RMK AO2 T01790153


Station Type Date Time Source
KENL Decoded METAR 2019/04/24 16:35 UTC NOAA

Centralia, Centralia Municipal Airport, IL, United States (KENL) 38-30-53N 089-05-32W
Apr 24, 2019 - 12:35 PM EDT / 2019.04.24 1635 UTC
Wind: from the E (090 degrees) at 5 MPH (4 KT):0
Visibility: 7 mile(s):0
Sky conditions: partly cloudy
Temperature: 64.2 F (17.9 C)
Dew Point: 59.5 F (15.3 C)
Relative Humidity: 84%
Pressure (altimeter): 29.92 in. Hg (1013 hPa)
ob: KENL 241635Z AUTO 09004KT 7SM SCT013 18/15 A2992 RMK AO2 T01790153
cycle: 16

Station Type Date Time Source
KENL TAF UTC NOAA

Error!

Example: see airport list